createdAt,value
2019-03-01T00:01:26.044Z,99.70
2019-03-01T00:04:00.903Z,99.70
2019-03-01T00:06:47.846Z,99.70
2019-03-01T00:09:52.653Z,99.60
2019-03-01T00:12:45.155Z,99.50
2019-03-01T00:15:26.131Z,99.50
2019-03-01T00:18:06.694Z,99.50
2019-03-01T00:21:27.921Z,99.50
2019-03-01T00:24:54.926Z,99.50
2019-03-01T00:28:06.137Z,99.50
2019-03-01T00:31:03.008Z,99.60
2019-03-01T00:34:00.278Z,99.50
2019-03-01T00:36:58.238Z,99.50
2019-03-01T00:39:49.458Z,99.50
2019-03-01T00:42:51.666Z,99.30
2019-03-01T00:45:19.071Z,99.10
2019-03-01T00:47:46.499Z,99.00
2019-03-01T00:50:13.860Z,99.00
2019-03-01T00:52:41.560Z,98.90
2019-03-01T00:55:08.916Z,99.00
2019-03-01T00:57:36.304Z,99.10
2019-03-01T01:00:05.207Z,99.10
2019-03-01T01:02:32.933Z,99.10
2019-03-01T01:05:00.515Z,99.10
2019-03-01T01:07:28.233Z,99.20
2019-03-01T01:09:55.695Z,99.40
2019-03-01T01:12:23.707Z,99.40
2019-03-01T01:14:51.203Z,99.50
2019-03-01T01:17:18.659Z,99.40
2019-03-01T01:19:46.272Z,99.50
2019-03-01T01:22:14.089Z,99.50
2019-03-01T01:24:41.516Z,99.60
2019-03-01T01:27:09.181Z,99.70
2019-03-01T01:29:36.796Z,99.80
2019-03-01T01:32:04.266Z,99.80
2019-03-01T01:34:32.404Z,99.80
2019-03-01T01:36:59.821Z,99.70
2019-03-01T01:39:27.544Z,99.60
2019-03-01T01:41:54.946Z,99.50
2019-03-01T01:44:22.288Z,99.50
2019-03-01T01:46:49.712Z,99.50
2019-03-01T01:49:18.385Z,99.50
2019-03-01T01:51:46.177Z,99.40
2019-03-01T01:54:13.867Z,99.80
2019-03-01T01:56:41.238Z,99.40
2019-03-01T01:59:08.682Z,99.40
2019-03-01T02:01:36.808Z,99.30
2019-03-01T02:04:04.262Z,99.40
2019-03-01T02:06:31.817Z,99.40
2019-03-01T02:08:59.483Z,99.40
2019-03-01T02:11:26.781Z,99.40
2019-03-01T02:13:54.462Z,99.30
2019-03-01T02:16:22.154Z,99.40
2019-03-01T02:18:57.520Z,99.30
2019-03-01T02:21:19.237Z,99.40
2019-03-01T02:23:46.671Z,99.30
2019-03-01T02:26:14.141Z,99.40
2019-03-01T02:28:41.808Z,99.50
2019-03-01T02:31:09.253Z,99.40
2019-03-01T02:33:36.747Z,99.50
2019-03-01T02:36:04.129Z,99.60
2019-03-01T02:38:32.283Z,99.60
2019-03-01T02:40:59.659Z,99.70
2019-03-01T02:43:27.118Z,99.90
2019-03-01T02:45:54.916Z,99.90
2019-03-01T02:48:22.924Z,99.90
2019-03-01T02:50:50.634Z,99.90
2019-03-01T02:53:18.110Z,99.80
2019-03-01T02:55:45.617Z,99.90
2019-03-01T02:58:13.088Z,99.80
2019-03-01T03:00:40.400Z,99.80
2019-03-01T03:03:07.970Z,99.70
2019-03-01T03:05:45.706Z,99.70
2019-03-01T03:08:13.452Z,99.70
2019-03-01T03:10:40.784Z,99.80
2019-03-01T03:13:08.737Z,99.70
2019-03-01T03:15:41.555Z,99.70
2019-03-01T03:18:08.880Z,99.70
2019-03-01T03:20:36.663Z,99.60
2019-03-01T03:23:04.068Z,99.60
2019-03-01T03:25:31.491Z,99.60
2019-03-01T03:27:59.253Z,99.60
2019-03-01T03:30:26.965Z,99.60
2019-03-01T03:32:54.344Z,99.70
2019-03-01T03:35:22.425Z,99.80
2019-03-01T03:37:49.842Z,99.90
2019-03-01T03:40:17.274Z,99.90
2019-03-01T03:42:45.224Z,99.90
2019-03-01T03:45:12.829Z,99.90
2019-03-01T03:47:40.430Z,99.90
2019-03-01T03:50:09.109Z,99.90
2019-03-01T03:52:36.717Z,99.90
2019-03-01T03:55:04.703Z,99.90
2019-03-01T03:57:32.379Z,99.90
2019-03-01T04:00:00.218Z,99.90
2019-03-01T04:02:27.744Z,99.90
2019-03-01T04:04:55.913Z,99.90
2019-03-01T04:07:23.650Z,99.90
2019-03-01T04:09:51.205Z,99.90
2019-03-01T04:12:18.687Z,99.90
2019-03-01T04:14:46.614Z,99.90
2019-03-01T04:17:14.524Z,99.90
2019-03-01T04:19:42.495Z,99.90
2019-03-01T04:22:09.905Z,99.90
2019-03-01T04:24:37.530Z,99.90
2019-03-01T04:27:05.182Z,99.90
2019-03-01T04:29:32.626Z,99.90
2019-03-01T04:32:00.305Z,99.90
2019-03-01T04:34:27.647Z,99.90
2019-03-01T04:36:55.312Z,99.90
2019-03-01T04:39:22.744Z,99.90
2019-03-01T04:41:50.160Z,99.90
2019-03-01T04:44:17.636Z,99.90
2019-03-01T04:46:45.347Z,99.90
2019-03-01T04:49:12.772Z,99.90
2019-03-01T04:51:40.469Z,99.90
2019-03-01T04:54:07.847Z,99.90
2019-03-01T04:56:35.215Z,99.90
2019-03-01T04:59:06.401Z,99.90
2019-03-01T05:01:33.845Z,99.90
2019-03-01T05:04:01.454Z,99.90
2019-03-01T05:06:29.146Z,99.90
2019-03-01T05:08:57.075Z,99.90
2019-03-01T05:11:24.363Z,99.90
2019-03-01T05:13:52.419Z,99.90
2019-03-01T05:16:20.349Z,99.90
2019-03-01T05:18:48.594Z,99.90
2019-03-01T05:21:16.221Z,99.90
2019-03-01T05:23:44.143Z,99.90
2019-03-01T05:26:11.837Z,99.90
2019-03-01T05:28:40.241Z,99.90
2019-03-01T05:31:07.697Z,99.90
2019-03-01T05:33:35.180Z,99.90
2019-03-01T05:36:03.488Z,99.90
2019-03-01T05:38:30.849Z,99.90
2019-03-01T05:41:50.717Z,99.90
2019-03-01T05:44:18.196Z,99.90
2019-03-01T05:46:46.326Z,99.90
2019-03-01T05:49:14.364Z,99.90
2019-03-01T05:51:42.546Z,99.90
2019-03-01T05:54:10.397Z,99.90
2019-03-01T05:56:38.465Z,99.90
2019-03-01T05:59:26.503Z,99.90
2019-03-01T06:02:41.716Z,99.90
2019-03-01T06:05:12.531Z,99.90
2019-03-01T06:08:11.956Z,99.90
2019-03-01T06:11:24.640Z,99.90
2019-03-01T06:14:27.943Z,99.90
2019-03-01T06:17:38.187Z,99.90
2019-03-01T06:20:15.030Z,99.90
2019-03-01T06:23:25.504Z,99.90
2019-03-01T06:26:26.218Z,99.90
2019-03-01T06:29:21.331Z,99.90
2019-03-01T06:32:23.342Z,99.90
2019-03-01T06:35:31.618Z,99.90
2019-03-01T06:39:01.707Z,99.90
2019-03-01T06:41:48.071Z,99.90
2019-03-01T06:44:56.166Z,99.90
2019-03-01T06:47:43.922Z,99.90
2019-03-01T06:50:43.009Z,99.90
2019-03-01T06:53:10.457Z,99.90
2019-03-01T06:55:45.584Z,99.90
2019-03-01T06:58:16.325Z,99.90
2019-03-01T07:00:50.246Z,99.90
2019-03-01T07:03:15.417Z,99.90
2019-03-01T07:05:42.830Z,99.90
2019-03-01T07:08:10.466Z,99.90
2019-03-01T07:10:37.916Z,99.90
2019-03-01T07:13:05.646Z,99.90
2019-03-01T07:15:32.987Z,99.90
2019-03-01T07:18:00.786Z,99.90
2019-03-01T07:20:28.751Z,99.80
2019-03-01T07:22:56.509Z,99.80
2019-03-01T07:25:24.411Z,99.60
2019-03-01T07:27:52.530Z,99.60
2019-03-01T07:30:20.477Z,99.70
2019-03-01T07:32:48.779Z,99.70
2019-03-01T07:35:16.897Z,99.70
2019-03-01T07:37:44.544Z,99.50
2019-03-01T07:40:12.121Z,99.70
2019-03-01T07:42:39.554Z,99.80
2019-03-01T07:45:07.934Z,99.90
2019-03-01T07:47:35.611Z,99.90
2019-03-01T07:50:03.655Z,99.90
2019-03-01T07:52:30.945Z,99.90
2019-03-01T07:54:58.276Z,99.60
2019-03-01T07:57:25.674Z,99.90
2019-03-01T07:59:53.414Z,99.60
2019-03-01T08:02:20.730Z,99.50
2019-03-01T08:04:48.033Z,99.40
2019-03-01T08:07:16.229Z,99.40
2019-03-01T08:09:44.856Z,99.20
2019-03-01T08:12:13.047Z,99.20
2019-03-01T08:14:40.478Z,99.20
2019-03-01T08:17:07.952Z,99.40
2019-03-01T08:19:35.305Z,99.00
2019-03-01T08:22:03.059Z,99.10
2019-03-01T08:24:30.800Z,99.30
2019-03-01T08:26:58.224Z,98.90
2019-03-01T08:29:25.588Z,98.90
2019-03-01T08:31:55.746Z,99.10
2019-03-01T08:34:22.564Z,99.00
2019-03-01T08:36:50.367Z,99.20
2019-03-01T08:39:17.751Z,98.70
2019-03-01T08:41:45.171Z,98.70
2019-03-01T08:44:13.124Z,98.50
2019-03-01T08:46:42.048Z,98.70
2019-03-01T08:49:10.554Z,98.90
2019-03-01T08:51:39.008Z,98.40
2019-03-01T08:54:06.662Z,98.20
2019-03-01T08:56:34.267Z,98.50
2019-03-01T08:59:01.679Z,98.40
2019-03-01T09:01:28.999Z,98.20
2019-03-01T09:03:59.275Z,98.00
2019-03-01T09:06:26.958Z,97.50
2019-03-01T09:08:54.679Z,97.30
2019-03-01T09:11:22.228Z,97.70
2019-03-01T09:13:49.686Z,97.70
2019-03-01T09:16:17.184Z,97.50
2019-03-01T09:18:46.666Z,97.20
2019-03-01T09:21:14.480Z,96.90
2019-03-01T09:23:41.823Z,97.00
2019-03-01T09:26:09.580Z,96.80
2019-03-01T09:28:39.614Z,96.60
2019-03-01T09:31:06.771Z,96.60
2019-03-01T09:33:34.085Z,95.90
2019-03-01T09:36:10.666Z,96.50
2019-03-01T09:38:39.485Z,96.00
2019-03-01T09:41:07.367Z,96.30
2019-03-01T09:43:34.655Z,96.40
2019-03-01T09:46:02.138Z,96.00
2019-03-01T09:48:29.529Z,96.40
2019-03-01T09:50:57.258Z,96.40
2019-03-01T09:53:24.591Z,96.10
2019-03-01T09:55:52.071Z,96.40
2019-03-01T09:58:19.725Z,95.90
2019-03-01T10:00:56.309Z,96.50
2019-03-01T10:03:19.695Z,96.40
2019-03-01T10:05:47.460Z,96.30
2019-03-01T10:08:15.134Z,96.10
2019-03-01T10:10:42.491Z,96.20
2019-03-01T10:13:09.921Z,95.80
2019-03-01T10:15:37.987Z,96.40
2019-03-01T10:18:05.674Z,96.70
2019-03-01T10:20:33.151Z,96.20
2019-03-01T10:23:00.843Z,95.00
2019-03-01T10:25:28.447Z,94.30
2019-03-01T10:27:56.160Z,94.30
2019-03-01T10:30:23.575Z,94.00
2019-03-01T10:32:51.187Z,94.30
2019-03-01T10:35:18.726Z,94.50
2019-03-01T10:37:46.230Z,94.60
2019-03-01T10:40:15.573Z,95.20
2019-03-01T10:42:43.209Z,95.40
2019-03-01T10:45:13.121Z,96.30
2019-03-01T10:47:40.819Z,96.70
2019-03-01T10:50:09.249Z,96.90
2019-03-01T10:52:36.685Z,96.40
2019-03-01T10:55:04.881Z,96.40
2019-03-01T10:57:32.967Z,96.70
2019-03-01T11:00:02.962Z,96.50
2019-03-01T11:02:30.404Z,96.70
2019-03-01T11:04:58.000Z,96.80
2019-03-01T11:07:26.014Z,95.70
2019-03-01T11:09:53.461Z,95.70
2019-03-01T11:12:21.039Z,95.40
2019-03-01T11:14:48.486Z,94.90
2019-03-01T11:17:16.267Z,95.30
2019-03-01T11:19:44.216Z,94.50
2019-03-01T11:22:12.172Z,94.60
2019-03-01T11:24:40.083Z,93.80
2019-03-01T11:27:12.896Z,94.00
2019-03-01T11:29:37.548Z,93.80
2019-03-01T11:32:05.241Z,93.00
2019-03-01T11:34:32.623Z,94.30
2019-03-01T11:37:00.063Z,93.50
2019-03-01T11:39:27.518Z,92.80
2019-03-01T11:41:54.976Z,92.70
2019-03-01T11:44:22.471Z,92.60
2019-03-01T11:46:50.095Z,92.90
2019-03-01T11:49:17.514Z,92.50
2019-03-01T11:51:44.974Z,92.80
2019-03-01T11:54:12.310Z,92.10
2019-03-01T11:56:39.803Z,92.50
2019-03-01T11:59:07.575Z,92.60
2019-03-01T12:01:35.016Z,93.00
2019-03-01T12:04:02.335Z,92.80
2019-03-01T12:06:29.794Z,92.80
2019-03-01T12:08:57.468Z,93.10
2019-03-01T12:11:25.060Z,93.10
2019-03-01T12:13:52.461Z,93.20
2019-03-01T12:16:19.828Z,93.50
2019-03-01T12:18:47.299Z,93.60
2019-03-01T12:21:14.746Z,94.00
2019-03-01T12:23:42.452Z,94.20
2019-03-01T12:26:10.152Z,94.30
2019-03-01T12:28:37.554Z,94.50
2019-03-01T12:31:05.356Z,94.60
2019-03-01T12:33:32.853Z,94.90
2019-03-01T12:36:00.923Z,94.90
2019-03-01T12:38:28.394Z,95.30
2019-03-01T12:40:56.033Z,94.90
2019-03-01T12:43:23.578Z,94.80
2019-03-01T12:45:50.981Z,95.10
2019-03-01T12:48:18.316Z,94.80
2019-03-01T12:50:46.028Z,95.00
2019-03-01T12:53:13.355Z,95.00
2019-03-01T12:55:41.063Z,95.00
2019-03-01T12:58:08.769Z,95.20
2019-03-01T13:00:36.221Z,94.90
2019-03-01T13:03:05.343Z,95.10
2019-03-01T13:05:33.312Z,95.00
2019-03-01T13:08:00.678Z,95.10
2019-03-01T13:10:28.395Z,94.80
2019-03-01T13:12:58.690Z,94.50
2019-03-01T13:15:25.639Z,94.60
2019-03-01T13:17:53.063Z,94.60
2019-03-01T13:20:20.726Z,94.80
2019-03-01T13:22:49.056Z,94.80
2019-03-01T13:25:16.466Z,95.00
2019-03-01T13:27:44.105Z,94.20
2019-03-01T13:30:16.346Z,94.40
2019-03-01T13:32:43.954Z,94.50
2019-03-01T13:35:12.624Z,94.90
2019-03-01T13:37:40.182Z,94.70
2019-03-01T13:40:08.932Z,94.50
2019-03-01T13:42:36.748Z,94.50
2019-03-01T13:45:04.347Z,94.70
2019-03-01T13:47:32.036Z,94.80
2019-03-01T13:49:59.479Z,94.50
2019-03-01T13:52:29.963Z,94.50
2019-03-01T13:54:56.836Z,94.60
2019-03-01T13:57:24.307Z,94.30
2019-03-01T13:59:51.732Z,94.60
2019-03-01T14:02:19.756Z,94.50
2019-03-01T14:04:47.065Z,94.40
2019-03-01T14:07:14.627Z,94.90
2019-03-01T14:09:42.901Z,94.70
2019-03-01T14:12:10.645Z,94.80
2019-03-01T14:14:38.084Z,94.70
2019-03-01T14:17:05.884Z,95.10
2019-03-01T14:19:33.366Z,95.30
2019-03-01T14:22:01.688Z,95.30
2019-03-01T14:24:30.439Z,95.40
2019-03-01T14:26:59.217Z,95.30
2019-03-01T14:29:26.645Z,95.30
2019-03-01T14:31:54.510Z,95.30
2019-03-01T14:34:22.103Z,95.00
2019-03-01T14:36:49.724Z,95.00
2019-03-01T14:39:17.238Z,95.30
2019-03-01T14:41:44.659Z,95.50
2019-03-01T14:44:12.411Z,95.80
2019-03-01T14:46:39.757Z,95.90
2019-03-01T14:49:07.222Z,96.10
2019-03-01T14:51:35.191Z,96.10
2019-03-01T14:54:02.760Z,96.20
2019-03-01T14:56:34.917Z,95.80
2019-03-01T14:59:08.614Z,95.90
2019-03-01T15:02:09.630Z,95.90
2019-03-01T15:04:37.131Z,95.60
2019-03-01T15:07:04.865Z,95.30
2019-03-01T15:09:32.809Z,95.30
2019-03-01T15:12:00.523Z,95.20
2019-03-01T15:14:28.587Z,95.30
2019-03-01T15:16:56.088Z,95.00
2019-03-01T15:19:23.527Z,95.30
2019-03-01T15:21:51.195Z,95.60
2019-03-01T15:24:19.097Z,95.20
2019-03-01T15:26:46.631Z,94.90
2019-03-01T15:29:14.118Z,95.30
2019-03-01T15:31:42.005Z,95.00
2019-03-01T15:34:09.701Z,95.20
2019-03-01T15:36:37.721Z,95.30
2019-03-01T15:39:05.656Z,95.00
2019-03-01T15:41:33.191Z,95.00
2019-03-01T15:44:01.007Z,95.40
2019-03-01T15:46:28.325Z,95.20
2019-03-01T15:48:55.972Z,95.30
2019-03-01T15:51:23.271Z,95.40
2019-03-01T15:53:51.035Z,95.30
2019-03-01T15:56:18.724Z,95.30
2019-03-01T15:58:46.803Z,95.00
2019-03-01T16:01:14.503Z,95.10
2019-03-01T16:03:42.232Z,95.20
2019-03-01T16:06:10.611Z,95.20
2019-03-01T16:08:43.746Z,95.20
2019-03-01T16:11:12.721Z,95.20
2019-03-01T16:13:40.675Z,95.40
2019-03-01T16:16:10.816Z,95.30
2019-03-01T16:18:38.966Z,95.30
2019-03-01T16:21:07.600Z,95.50
2019-03-01T16:23:35.440Z,95.40
2019-03-01T16:26:02.874Z,95.40
2019-03-01T16:28:32.159Z,95.30
2019-03-01T16:31:00.643Z,95.30
2019-03-01T16:33:30.016Z,95.30
2019-03-01T16:36:01.055Z,95.30
2019-03-01T16:38:28.789Z,95.30
2019-03-01T16:40:56.328Z,95.40
2019-03-01T16:43:25.403Z,95.40
2019-03-01T16:45:56.359Z,95.40
2019-03-01T16:48:23.147Z,95.60
2019-03-01T16:50:50.859Z,95.40
2019-03-01T16:53:18.963Z,95.40
2019-03-01T16:55:46.251Z,95.60
2019-03-01T16:58:13.755Z,95.60
2019-03-01T17:00:41.946Z,95.80
2019-03-01T17:03:09.750Z,95.70
2019-03-01T17:05:38.766Z,95.80
2019-03-01T17:08:07.450Z,95.80
2019-03-01T17:10:35.368Z,95.80
2019-03-01T17:13:03.402Z,95.80
2019-03-01T17:15:31.138Z,95.80
2019-03-01T17:17:59.160Z,95.90
2019-03-01T17:20:27.459Z,95.90
2019-03-01T17:22:54.943Z,96.00
2019-03-01T17:25:23.604Z,96.10
2019-03-01T17:27:52.271Z,96.10
2019-03-01T17:30:20.411Z,96.30
2019-03-01T17:32:48.096Z,96.30
2019-03-01T17:35:16.144Z,96.30
2019-03-01T17:37:43.921Z,96.30
2019-03-01T17:40:12.227Z,96.30
2019-03-01T17:42:39.701Z,96.40
2019-03-01T17:45:10.522Z,96.40
2019-03-01T17:47:38.107Z,96.50
2019-03-01T17:50:08.486Z,96.60
2019-03-01T17:52:35.843Z,96.50
2019-03-01T17:55:03.466Z,96.60
2019-03-01T17:57:33.012Z,96.50
2019-03-01T18:00:00.225Z,96.50
2019-03-01T18:02:28.794Z,96.40
2019-03-01T18:04:56.812Z,96.40
2019-03-01T18:07:27.235Z,96.30
2019-03-01T18:09:55.330Z,96.30
2019-03-01T18:12:23.987Z,96.30
2019-03-01T18:14:51.407Z,96.20
2019-03-01T18:17:19.730Z,96.30
2019-03-01T18:19:47.147Z,96.40
2019-03-01T18:22:14.643Z,96.30
2019-03-01T18:24:43.471Z,96.20
2019-03-01T18:27:12.654Z,96.30
2019-03-01T18:29:42.330Z,96.20
2019-03-01T18:32:11.396Z,96.20
2019-03-01T18:34:39.109Z,96.20
2019-03-01T18:37:19.034Z,96.20
2019-03-01T18:39:38.256Z,96.20
2019-03-01T18:42:06.619Z,96.20
2019-03-01T18:44:34.838Z,96.20
2019-03-01T18:47:02.301Z,96.30
2019-03-01T18:49:30.038Z,96.30
2019-03-01T18:51:57.466Z,96.30
2019-03-01T18:54:25.185Z,96.40
2019-03-01T18:56:52.570Z,96.50
2019-03-01T18:59:21.690Z,96.60
2019-03-01T19:01:49.917Z,96.60
2019-03-01T19:04:29.129Z,96.60
2019-03-01T19:06:48.510Z,96.60
2019-03-01T19:09:17.520Z,96.80
2019-03-01T19:11:45.770Z,96.70
2019-03-01T19:14:14.015Z,96.60
2019-03-01T19:16:41.404Z,96.60
2019-03-01T19:19:09.325Z,96.60
2019-03-01T19:21:37.112Z,96.70
2019-03-01T19:24:08.210Z,96.70
2019-03-01T19:26:36.548Z,96.70
2019-03-01T19:29:04.383Z,96.80
2019-03-01T19:31:31.890Z,96.80
2019-03-01T19:33:59.898Z,96.70
2019-03-01T19:36:27.483Z,96.70
2019-03-01T19:38:56.769Z,96.90
2019-03-01T19:41:24.470Z,98.80
2019-03-01T19:43:57.478Z,99.60
2019-03-01T19:46:21.614Z,99.90
2019-03-01T19:48:49.615Z,99.90
2019-03-01T19:51:17.062Z,99.90
2019-03-01T19:53:44.608Z,99.90
2019-03-01T19:56:12.648Z,99.90
2019-03-01T19:58:44.163Z,99.90
2019-03-01T20:01:10.178Z,99.90
2019-03-01T20:03:37.910Z,99.90
2019-03-01T20:06:07.960Z,99.90
2019-03-01T20:08:35.337Z,99.90
2019-03-01T20:11:03.590Z,99.90
2019-03-01T20:13:31.249Z,99.90
2019-03-01T20:15:59.090Z,99.90
2019-03-01T20:18:27.009Z,99.90
2019-03-01T20:20:54.436Z,99.90
2019-03-01T20:23:21.817Z,99.90
2019-03-01T20:25:51.062Z,99.90
2019-03-01T20:28:18.907Z,99.90
2019-03-01T20:30:46.664Z,99.90
2019-03-01T20:33:14.283Z,99.90
2019-03-01T20:35:42.693Z,99.90
2019-03-01T20:38:10.723Z,99.90
2019-03-01T20:40:38.174Z,99.90
2019-03-01T20:43:07.021Z,99.90
2019-03-01T20:45:34.955Z,99.90
2019-03-01T20:48:03.016Z,99.90
2019-03-01T20:50:30.391Z,99.90
2019-03-01T20:52:58.130Z,99.90
2019-03-01T20:55:25.604Z,99.90
2019-03-01T20:57:53.072Z,99.90
2019-03-01T21:00:22.660Z,99.90
2019-03-01T21:02:50.304Z,99.90
2019-03-01T21:05:19.200Z,99.90
2019-03-01T21:07:48.249Z,99.90
2019-03-01T21:10:17.757Z,99.90
2019-03-01T21:12:45.249Z,99.90
2019-03-01T21:15:13.399Z,99.90
2019-03-01T21:17:40.751Z,99.90
2019-03-01T21:20:09.243Z,99.90
2019-03-01T21:22:39.561Z,99.90
2019-03-01T21:25:06.526Z,99.90
2019-03-01T21:27:33.891Z,99.90
2019-03-01T21:30:01.310Z,99.90
2019-03-01T21:32:29.326Z,99.90
2019-03-01T21:34:57.674Z,99.90
2019-03-01T21:37:25.374Z,99.90
2019-03-01T21:39:55.608Z,99.90
2019-03-01T21:42:22.615Z,99.90
2019-03-01T21:44:50.070Z,99.90
2019-03-01T21:47:17.452Z,99.90
2019-03-01T21:49:45.301Z,99.90
2019-03-01T21:52:12.975Z,99.90
2019-03-01T21:54:40.724Z,99.90
2019-03-01T21:57:08.370Z,99.90
2019-03-01T21:59:36.320Z,99.90
2019-03-01T22:02:04.097Z,99.90
2019-03-01T22:04:34.428Z,99.90
2019-03-01T22:07:02.776Z,99.90
2019-03-01T22:09:30.365Z,99.90
2019-03-01T22:11:57.853Z,99.90
2019-03-01T22:14:25.372Z,99.90
2019-03-01T22:16:53.292Z,99.90
2019-03-01T22:19:20.991Z,99.90
2019-03-01T22:21:48.720Z,99.90
2019-03-01T22:24:16.191Z,99.90
2019-03-01T22:26:46.614Z,99.90
2019-03-01T22:29:13.083Z,99.90
2019-03-01T22:31:40.592Z,99.90
2019-03-01T22:34:08.189Z,99.90
2019-03-01T22:36:37.237Z,99.90
2019-03-01T22:39:05.437Z,99.90
2019-03-01T22:41:35.573Z,99.90
2019-03-01T22:44:02.575Z,99.90
2019-03-01T22:46:30.582Z,99.90
2019-03-01T22:48:58.034Z,99.90
2019-03-01T22:51:25.619Z,99.90
2019-03-01T22:53:53.868Z,99.90
2019-03-01T22:56:22.654Z,99.90
2019-03-01T22:58:51.245Z,99.90
2019-03-01T23:01:29.491Z,99.90
2019-03-01T23:04:02.279Z,99.90
2019-03-01T23:06:30.008Z,99.90
2019-03-01T23:08:57.953Z,99.90
2019-03-01T23:11:28.704Z,99.90
2019-03-01T23:13:55.682Z,99.90
2019-03-01T23:16:24.319Z,99.90
2019-03-01T23:18:56.754Z,99.90
2019-03-01T23:21:21.664Z,99.90
2019-03-01T23:23:49.163Z,99.90
2019-03-01T23:26:18.636Z,99.90
2019-03-01T23:28:46.490Z,99.90
2019-03-01T23:31:14.355Z,99.90
2019-03-01T23:33:42.708Z,99.90
2019-03-01T23:36:10.775Z,99.90
2019-03-01T23:38:38.529Z,99.90
2019-03-01T23:41:07.807Z,99.90
2019-03-01T23:43:36.152Z,99.70
2019-03-01T23:46:03.573Z,99.90
2019-03-01T23:48:31.766Z,99.90
2019-03-01T23:51:00.205Z,99.90
2019-03-01T23:53:30.975Z,99.90
2019-03-01T23:55:57.459Z,99.70
2019-03-01T23:58:27.161Z,99.80
